Scf Alpine — A8XQ2 — position and weather

sailwx.info

Track history (hours):
 
Tides and Currents Weather Stations Pressure Air Temp Water Temp Dewpoint Dewpoint Depression Visibility Wind Speed Wind Dir Waves Ship Positions

Scf Alpine

Last reported at 2017-Jun-22 08:09 UTC. Time now 2017-Jul-28 00:51 UTC.
Position N 01°54' E 102°22'.
Warning: this ship's position is 35 days out of date.

Length 228 m; draft 8 m.

Type: Ship. MMSI: 636014957.

Date/timePositionNaut miles runAvg speedWind from/ knotsBaromVisibWave heightAir tempDewpointWater temp
2017-Jun-22 08:09N 01°54' E 102°22'312.8
2017-Jun-22 07:55N 01°53' E 102°24'613.3
2017-Jun-22 07:30N 01°50' E 102°29'813.9
2017-Jun-22 06:56N 01°46' E 102°36'714.1
2017-Jun-22 06:28N 01°44' E 102°42'914.0
2017-Jun-22 05:48N 01°40' E 102°51'513.9
2017-Jun-22 05:25N 01°39' E 102°56'3413.2
2017-Jun-22 02:50N 01°17' E 103°22'412.1
2017-Jun-22 02:30N 01°14' E 103°25'612.0
2017-Jun-22 02:00N 01°13' E 103°31'612.2
2017-Jun-22 01:30N 01°11' E 103°37'612.3
2017-Jun-22 01:00N 01°09' E 103°42'611.6
2017-Jun-22 00:30N 01°10' E 103°48'4 8.5
2017-Jun-22 00:00N 01°12' E 103°52'4 8.8
2017-Jun-21 23:30N 01°14' E 103°56'2 4.4
2017-Jun-21 23:00N 01°16' E 103°57'2 3.2
2017-Jun-21 22:27N 01°17' E 103°56'0 0.3
2017-Jun-21 22:00N 01°17' E 103°56'0 0.1
2017-Jun-21 21:24N 01°17' E 103°56'0 0.3
2017-Jun-21 20:57N 01°17' E 103°56'0 0.2
2017-Jun-21 20:30N 01°17' E 103°56'0 0.0
2017-Jun-21 20:00N 01°17' E 103°56'0 0.1
2017-Jun-21 19:30N 01°17' E 103°56'0 0.0
2017-Jun-21 18:54N 01°17' E 103°56'0 0.0
2017-Jun-21 18:27N 01°17' E 103°56'0 0.0
2017-Jun-21 17:51N 01°17' E 103°56'0 0.0
2017-Jun-21 17:24N 01°17' E 103°56'0 0.0
2017-Jun-21 16:45N 01°17' E 103°56'0 0.0
2017-Jun-21 16:09N 01°17' E 103°56'0 0.1
2017-Jun-21 16:00N 01°17' E 103°56'0 0.0
2017-Jun-21 15:27N 01°17' E 103°56'0 0.0
2017-Jun-21 14:21N 01°17' E 103°56'0 0.2
2017-Jun-21 13:30N 01°17' E 103°56'0 0.0
2017-Jun-21 12:57N 01°17' E 103°56'0 0.1
2017-Jun-21 12:21N 01°17' E 103°56'0 0.0
2017-Jun-21 11:57N 01°17' E 103°56'0 0.0
2017-Jun-21 11:30N 01°17' E 103°56'0 0.1
2017-Jun-21 10:57N 01°17' E 103°56'0 0.2
2017-Jun-21 10:30N 01°17' E 103°56'2 3.3
2017-Jun-21 10:00N 01°16' E 103°58'3 6.9
2017-Jun-21 09:30N 01°16' E 104°01'12 9.9
2017-Jun-21 08:18N 01°18' E 104°13'  
2017-Jun-16 03:43S 07°20' E 126°08'  
Track history (hours):
 
Tides and Currents Weather Stations Pressure Air Temp Water Temp Dewpoint Dewpoint Depression Visibility Wind Speed Wind Dir Waves Ship Positions

Scf Alpine

Last reported at 2017-Jun-22 08:09 UTC. Time now 2017-Jul-28 00:51 UTC.
Position N 01°54' E 102°22'.
Warning: this ship's position is 35 days out of date.

Length 228 m; draft 8 m.

Type: Ship. MMSI: 636014957.

Date/timePositionNaut miles runAvg speedWind from/ knotsBaromVisibWave heightAir tempDewpointWater temp
2017-Jun-22 08:09N 01°54' E 102°22'312.8
2017-Jun-22 07:55N 01°53' E 102°24'613.3
2017-Jun-22 07:30N 01°50' E 102°29'813.9
2017-Jun-22 06:56N 01°46' E 102°36'714.1
2017-Jun-22 06:28N 01°44' E 102°42'914.0
2017-Jun-22 05:48N 01°40' E 102°51'513.9
2017-Jun-22 05:25N 01°39' E 102°56'3413.2
2017-Jun-22 02:50N 01°17' E 103°22'412.1
2017-Jun-22 02:30N 01°14' E 103°25'612.0
2017-Jun-22 02:00N 01°13' E 103°31'612.2
2017-Jun-22 01:30N 01°11' E 103°37'612.3
2017-Jun-22 01:00N 01°09' E 103°42'611.6
2017-Jun-22 00:30N 01°10' E 103°48'4 8.5
2017-Jun-22 00:00N 01°12' E 103°52'4 8.8
2017-Jun-21 23:30N 01°14' E 103°56'2 4.4
2017-Jun-21 23:00N 01°16' E 103°57'2 3.2
2017-Jun-21 22:27N 01°17' E 103°56'0 0.3
2017-Jun-21 22:00N 01°17' E 103°56'0 0.1
2017-Jun-21 21:24N 01°17' E 103°56'0 0.3
2017-Jun-21 20:57N 01°17' E 103°56'0 0.2
2017-Jun-21 20:30N 01°17' E 103°56'0 0.0
2017-Jun-21 20:00N 01°17' E 103°56'0 0.1
2017-Jun-21 19:30N 01°17' E 103°56'0 0.0
2017-Jun-21 18:54N 01°17' E 103°56'0 0.0
2017-Jun-21 18:27N 01°17' E 103°56'0 0.0
2017-Jun-21 17:51N 01°17' E 103°56'0 0.0
2017-Jun-21 17:24N 01°17' E 103°56'0 0.0
2017-Jun-21 16:45N 01°17' E 103°56'0 0.0
2017-Jun-21 16:09N 01°17' E 103°56'0 0.1
2017-Jun-21 16:00N 01°17' E 103°56'0 0.0
2017-Jun-21 15:27N 01°17' E 103°56'0 0.0
2017-Jun-21 14:21N 01°17' E 103°56'0 0.2
2017-Jun-21 13:30N 01°17' E 103°56'0 0.0
2017-Jun-21 12:57N 01°17' E 103°56'0 0.1
2017-Jun-21 12:21N 01°17' E 103°56'0 0.0
2017-Jun-21 11:57N 01°17' E 103°56'0 0.0
2017-Jun-21 11:30N 01°17' E 103°56'0 0.1
2017-Jun-21 10:57N 01°17' E 103°56'0 0.2
2017-Jun-21 10:30N 01°17' E 103°56'2 3.3
2017-Jun-21 10:00N 01°16' E 103°58'3 6.9
2017-Jun-21 09:30N 01°16' E 104°01'12 9.9
2017-Jun-21 08:18N 01°18' E 104°13'  
2017-Jun-16 03:43S 07°20' E 126°08'  

Dump ship's entire track history